createdAt,value
2022-09-06T00:01:18.143Z,20.70
2022-09-06T00:03:47.881Z,20.70
2022-09-06T00:06:20.450Z,20.70
2022-09-06T00:08:50.941Z,20.70
2022-09-06T00:11:20.348Z,20.70
2022-09-06T00:13:49.828Z,20.70
2022-09-06T00:16:25.384Z,20.70
2022-09-06T00:18:57.563Z,20.70
2022-09-06T00:21:29.304Z,20.60
2022-09-06T00:23:59.433Z,20.60
2022-09-06T00:26:28.050Z,20.60
2022-09-06T00:28:56.667Z,20.50
2022-09-06T00:31:27.889Z,20.50
2022-09-06T00:33:56.556Z,20.50
2022-09-06T00:36:25.583Z,20.50
2022-09-06T00:38:54.192Z,20.40
2022-09-06T00:41:24.304Z,20.40
2022-09-06T00:43:52.944Z,20.40
2022-09-06T00:46:28.957Z,20.40
2022-09-06T00:49:06.329Z,20.40
2022-09-06T00:51:37.672Z,20.40
2022-09-06T00:54:09.294Z,20.40
2022-09-06T00:56:45.072Z,20.40
2022-09-06T00:59:13.791Z,20.40
2022-09-06T01:01:42.789Z,20.40
2022-09-06T01:04:11.680Z,20.30
2022-09-06T01:06:58.301Z,20.30
2022-09-06T01:09:53.640Z,20.30
2022-09-06T01:12:42.222Z,20.30
2022-09-06T01:15:27.129Z,20.30
2022-09-06T01:18:14.187Z,20.30
2022-09-06T01:21:27.358Z,20.30
2022-09-06T01:24:42.173Z,20.30
2022-09-06T01:28:03.724Z,20.30
2022-09-06T01:30:42.130Z,20.30
2022-09-06T01:33:20.637Z,20.30
2022-09-06T01:35:57.077Z,20.30
2022-09-06T01:38:26.354Z,20.30
2022-09-06T01:40:54.973Z,20.30
2022-09-06T01:43:31.117Z,20.30
2022-09-06T01:46:11.063Z,20.30
2022-09-06T01:49:10.062Z,20.30
2022-09-06T01:51:57.953Z,20.30
2022-09-06T01:54:45.269Z,20.20
2022-09-06T01:57:29.375Z,20.20
2022-09-06T02:00:08.722Z,20.20
2022-09-06T02:02:51.619Z,20.20
2022-09-06T02:05:29.470Z,20.20
2022-09-06T02:08:04.120Z,20.20
2022-09-06T02:10:41.512Z,20.20
2022-09-06T02:13:13.781Z,20.20
2022-09-06T02:15:52.234Z,20.20
2022-09-06T02:18:28.828Z,20.20
2022-09-06T02:21:01.969Z,20.10
2022-09-06T02:23:38.463Z,20.10
2022-09-06T02:26:14.307Z,20.10
2022-09-06T02:28:43.031Z,20.10
2022-09-06T02:31:21.405Z,20.10
2022-09-06T02:33:52.323Z,20.10
2022-09-06T02:36:21.608Z,20.10
2022-09-06T02:38:50.717Z,20.10
2022-09-06T02:41:24.287Z,20.10
2022-09-06T02:43:53.125Z,20.10
2022-09-06T02:46:24.586Z,20.10
2022-09-06T02:48:53.594Z,20.10
2022-09-06T02:51:22.267Z,20.00
2022-09-06T02:53:50.935Z,20.00
2022-09-06T02:56:19.596Z,20.00
2022-09-06T02:58:48.445Z,20.00
2022-09-06T03:01:17.310Z,19.90
2022-09-06T03:03:47.510Z,19.90
2022-09-06T03:06:16.692Z,19.80
2022-09-06T03:08:45.295Z,19.90
2022-09-06T03:11:14.294Z,19.80
2022-09-06T03:13:42.910Z,19.80
2022-09-06T03:16:11.672Z,19.80
2022-09-06T03:18:40.436Z,19.70
2022-09-06T03:21:10.439Z,19.70
2022-09-06T03:23:39.647Z,19.70
2022-09-06T03:26:09.464Z,19.70
2022-09-06T03:28:38.111Z,19.70
2022-09-06T03:31:07.193Z,19.70
2022-09-06T03:33:36.148Z,19.70
2022-09-06T03:36:05.628Z,19.60
2022-09-06T03:38:35.955Z,19.60
2022-09-06T03:41:04.803Z,19.60
2022-09-06T03:43:33.435Z,19.50
2022-09-06T03:46:02.625Z,19.50
2022-09-06T03:48:31.981Z,19.40
2022-09-06T03:51:01.104Z,19.40
2022-09-06T03:53:30.846Z,19.40
2022-09-06T03:56:01.766Z,19.40
2022-09-06T03:58:33.786Z,19.40
2022-09-06T04:01:08.352Z,19.40
2022-09-06T04:03:38.072Z,19.30
2022-09-06T04:06:08.050Z,19.30
2022-09-06T04:08:38.288Z,19.30
2022-09-06T04:11:08.835Z,19.20
2022-09-06T04:13:38.636Z,19.20
2022-09-06T04:16:08.016Z,19.10
2022-09-06T04:18:36.623Z,19.10
2022-09-06T04:21:06.257Z,19.10
2022-09-06T04:23:39.250Z,19.10
2022-09-06T04:26:09.991Z,19.10
2022-09-06T04:28:38.553Z,19.10
2022-09-06T04:31:07.398Z,19.10
2022-09-06T04:33:38.399Z,19.20
2022-09-06T04:36:11.046Z,19.20
2022-09-06T04:38:42.067Z,19.30
2022-09-06T04:41:14.518Z,19.40
2022-09-06T04:43:43.225Z,19.50
2022-09-06T04:46:20.771Z,19.60
2022-09-06T04:48:49.685Z,19.70
2022-09-06T04:51:18.596Z,19.90
2022-09-06T04:53:47.916Z,20.00
2022-09-06T04:56:22.032Z,20.10
2022-09-06T04:58:53.760Z,20.20
2022-09-06T05:01:23.406Z,20.30
2022-09-06T05:03:56.177Z,20.40
2022-09-06T05:06:26.613Z,20.60
2022-09-06T05:08:55.332Z,20.80
2022-09-06T05:11:25.470Z,20.90
2022-09-06T05:13:54.121Z,21.20
2022-09-06T05:16:22.834Z,21.50
2022-09-06T05:18:51.568Z,21.80
2022-09-06T05:21:20.325Z,22.00
2022-09-06T05:23:48.946Z,22.30
2022-09-06T05:26:17.932Z,22.40
2022-09-06T05:28:48.022Z,22.70
2022-09-06T05:31:28.782Z,22.90
2022-09-06T05:33:58.605Z,22.90
2022-09-06T05:36:28.181Z,22.80
2022-09-06T05:38:58.788Z,22.50
2022-09-06T05:41:28.379Z,22.40
2022-09-06T05:43:58.386Z,22.10
2022-09-06T05:46:27.676Z,21.90
2022-09-06T05:48:59.888Z,21.80
2022-09-06T05:51:28.557Z,21.50
2022-09-06T05:53:57.169Z,21.30
2022-09-06T05:56:26.004Z,21.20
2022-09-06T05:58:54.747Z,21.10
2022-09-06T06:01:27.785Z,21.00
2022-09-06T06:03:59.073Z,20.90
2022-09-06T06:06:30.273Z,20.80
2022-09-06T06:09:00.047Z,20.90
2022-09-06T06:11:29.697Z,20.90
2022-09-06T06:13:58.979Z,20.90
2022-09-06T06:16:29.238Z,20.80
2022-09-06T06:18:58.153Z,20.80
2022-09-06T06:21:28.892Z,20.80
2022-09-06T06:23:59.798Z,20.80
2022-09-06T06:26:32.433Z,20.90
2022-09-06T06:29:02.197Z,20.80
2022-09-06T06:31:34.804Z,20.70
2022-09-06T06:34:04.223Z,20.70
2022-09-06T06:36:35.301Z,20.70
2022-09-06T06:39:06.526Z,20.60
2022-09-06T06:41:35.767Z,20.60
2022-09-06T06:44:06.580Z,20.50
2022-09-06T06:46:39.296Z,20.50
2022-09-06T06:49:08.146Z,20.60
2022-09-06T06:51:38.328Z,20.50
2022-09-06T06:54:07.509Z,20.60
2022-09-06T06:56:39.378Z,20.60
2022-09-06T06:59:09.356Z,20.70
2022-09-06T07:01:40.177Z,20.80
2022-09-06T07:04:10.627Z,20.90
2022-09-06T07:12:29.214Z,21.90
2022-09-06T07:14:58.000Z,22.80
2022-09-06T07:17:28.265Z,23.70
2022-09-06T07:22:41.956Z,24.80
2022-09-06T07:25:14.483Z,25.00
2022-09-06T07:30:21.090Z,24.40
2022-09-06T07:32:51.281Z,24.70
2022-09-06T07:35:20.627Z,25.00
2022-09-06T07:37:57.803Z,25.20
2022-09-06T07:40:28.424Z,25.10
2022-09-06T07:42:59.179Z,25.00
2022-09-06T07:45:28.280Z,25.40
2022-09-06T07:48:00.114Z,25.00
2022-09-06T07:50:47.473Z,24.90
2022-09-06T07:53:24.598Z,24.80
2022-09-06T07:56:00.112Z,25.40
2022-09-06T07:58:30.198Z,26.30
2022-09-06T08:01:26.779Z,26.90
2022-09-06T08:03:57.953Z,27.30
2022-09-06T08:06:27.356Z,27.20
2022-09-06T08:11:29.881Z,27.80
2022-09-06T08:14:01.196Z,28.00
2022-09-06T08:16:31.505Z,28.10
2022-09-06T08:19:04.668Z,28.00
2022-09-06T08:21:35.186Z,27.80
2022-09-06T08:24:06.505Z,27.70
2022-09-06T08:26:39.562Z,27.90
2022-09-06T08:29:09.510Z,27.80
2022-09-06T08:31:41.011Z,27.90
2022-09-06T08:34:13.046Z,28.30
2022-09-06T08:36:42.379Z,28.20
2022-09-06T08:39:12.376Z,28.70
2022-09-06T08:41:51.338Z,29.20
2022-09-06T08:47:15.931Z,29.30
2022-09-06T08:49:48.231Z,28.80
2022-09-06T08:53:06.518Z,28.80
2022-09-06T08:55:43.238Z,29.40
2022-09-06T08:58:30.284Z,29.40
2022-09-06T09:01:05.152Z,29.80
2022-09-06T09:03:37.771Z,30.00
2022-09-06T09:06:10.838Z,30.00
2022-09-06T09:08:49.051Z,29.90
2022-09-06T09:11:21.301Z,30.00
2022-09-06T09:13:57.013Z,29.50
2022-09-06T09:16:25.999Z,28.90
2022-09-06T09:18:58.445Z,28.40
2022-09-06T09:21:33.465Z,28.10
2022-09-06T09:24:07.351Z,27.60
2022-09-06T09:26:45.567Z,28.00
2022-09-06T09:29:17.242Z,28.20
2022-09-06T09:31:53.442Z,28.70
2022-09-06T09:34:33.924Z,29.10
2022-09-06T09:40:16.082Z,29.90
2022-09-06T09:42:46.249Z,30.40
2022-09-06T09:45:28.689Z,30.00
2022-09-06T09:47:58.408Z,29.90
2022-09-06T09:50:30.613Z,30.50
2022-09-06T09:53:10.576Z,30.90
2022-09-06T09:55:40.501Z,30.10
2022-09-06T09:58:18.820Z,30.20
2022-09-06T10:00:47.731Z,30.50
2022-09-06T10:03:20.174Z,30.20
2022-09-06T10:06:02.443Z,30.30
2022-09-06T10:08:36.138Z,30.10
2022-09-06T10:11:05.410Z,30.10
2022-09-06T10:13:34.435Z,29.90
2022-09-06T10:16:04.057Z,29.30
2022-09-06T10:18:36.010Z,29.00
2022-09-06T10:21:07.703Z,28.40
2022-09-06T10:26:56.631Z,27.70
2022-09-06T10:29:39.100Z,27.40
2022-09-06T10:32:38.770Z,27.20
2022-09-06T10:35:17.478Z,27.20
2022-09-06T10:38:02.351Z,27.30
2022-09-06T10:40:40.859Z,27.30
2022-09-06T10:43:18.760Z,27.40
2022-09-06T10:45:59.293Z,27.30
2022-09-06T10:48:33.529Z,27.30
2022-09-06T10:51:13.231Z,27.30
2022-09-06T10:53:50.919Z,27.20
2022-09-06T10:56:28.385Z,27.10
2022-09-06T11:02:19.896Z,26.90
2022-09-06T11:10:38.857Z,26.80
2022-09-06T11:13:16.924Z,26.90
2022-09-06T11:15:55.312Z,27.10
2022-09-06T11:18:33.184Z,27.00
2022-09-06T11:21:49.847Z,27.10
2022-09-06T11:24:34.413Z,27.60
2022-09-06T11:27:12.116Z,27.90
2022-09-06T11:29:52.085Z,28.30
2022-09-06T11:32:38.702Z,28.60
2022-09-06T11:35:21.764Z,28.70
2022-09-06T11:38:00.581Z,28.90
2022-09-06T11:40:38.570Z,28.90
2022-09-06T11:43:19.121Z,28.50
2022-09-06T11:45:52.942Z,28.40
2022-09-06T11:49:01.859Z,28.30
2022-09-06T11:51:38.347Z,28.30
2022-09-06T11:54:35.924Z,28.30
2022-09-06T11:57:16.445Z,28.20
2022-09-06T12:00:01.695Z,28.10
2022-09-06T12:02:37.502Z,28.00
2022-09-06T12:05:30.645Z,27.90
2022-09-06T12:08:31.949Z,27.80
2022-09-06T12:11:07.840Z,27.50
2022-09-06T12:14:03.362Z,27.40
2022-09-06T12:17:26.298Z,27.40
2022-09-06T12:20:06.276Z,27.20
2022-09-06T12:23:05.484Z,27.20
2022-09-06T12:25:58.246Z,27.20
2022-09-06T12:28:43.337Z,27.00
2022-09-06T12:31:38.908Z,26.70
2022-09-06T12:34:13.963Z,26.50
2022-09-06T12:36:57.275Z,26.30
2022-09-06T12:39:26.877Z,26.30
2022-09-06T12:42:02.027Z,26.20
2022-09-06T12:44:35.591Z,26.20
2022-09-06T12:47:12.457Z,26.20
2022-09-06T12:49:41.298Z,26.30
2022-09-06T12:52:15.760Z,26.40
2022-09-06T12:54:48.429Z,26.40
2022-09-06T12:57:22.732Z,26.50
2022-09-06T12:59:54.955Z,26.50
2022-09-06T13:02:36.615Z,26.50
2022-09-06T13:05:11.276Z,26.40
2022-09-06T13:07:46.147Z,26.30
2022-09-06T13:10:19.061Z,26.20
2022-09-06T13:12:50.821Z,26.20
2022-09-06T13:15:24.990Z,26.40
2022-09-06T13:17:54.598Z,26.30
2022-09-06T13:20:28.687Z,26.30
2022-09-06T13:23:12.502Z,26.10
2022-09-06T13:25:50.239Z,25.60
2022-09-06T13:28:31.166Z,25.40
2022-09-06T13:31:09.894Z,25.20
2022-09-06T13:33:39.340Z,25.20
2022-09-06T13:36:24.303Z,25.10
2022-09-06T13:38:55.771Z,25.30
2022-09-06T13:41:45.050Z,25.30
2022-09-06T13:44:29.641Z,25.30
2022-09-06T13:46:58.536Z,25.10
2022-09-06T13:49:28.484Z,25.00
2022-09-06T13:52:02.135Z,24.90
2022-09-06T13:54:33.755Z,24.90
2022-09-06T13:57:02.879Z,24.80
2022-09-06T13:59:31.953Z,24.70
2022-09-06T14:02:07.800Z,24.80
2022-09-06T14:04:37.420Z,24.60
2022-09-06T14:07:06.865Z,24.70
2022-09-06T14:09:37.641Z,24.80
2022-09-06T14:12:07.215Z,24.80
2022-09-06T14:14:35.976Z,24.90
2022-09-06T14:17:05.222Z,25.00
2022-09-06T14:19:33.838Z,25.00
2022-09-06T14:22:04.928Z,25.00
2022-09-06T14:24:33.693Z,25.00
2022-09-06T14:27:05.262Z,25.00
2022-09-06T14:29:34.481Z,25.00
2022-09-06T14:32:03.755Z,25.00
2022-09-06T14:34:32.857Z,24.90
2022-09-06T14:37:01.503Z,24.90
2022-09-06T14:39:30.519Z,25.00
2022-09-06T14:41:59.481Z,24.90
2022-09-06T14:44:29.607Z,24.80
2022-09-06T14:46:58.765Z,24.80
2022-09-06T14:49:28.588Z,24.70
2022-09-06T14:51:57.206Z,24.70
2022-09-06T14:54:29.161Z,24.80
2022-09-06T14:56:58.295Z,24.80
2022-09-06T14:59:28.510Z,24.70
2022-09-06T15:01:57.536Z,24.60
2022-09-06T15:04:27.671Z,24.70
2022-09-06T15:06:56.292Z,24.70
2022-09-06T15:09:25.118Z,24.60
2022-09-06T15:11:54.694Z,24.60
2022-09-06T15:14:25.681Z,24.50
2022-09-06T15:16:59.579Z,24.50
2022-09-06T15:19:30.137Z,24.50
2022-09-06T15:21:59.278Z,24.50
2022-09-06T15:24:28.736Z,24.50
2022-09-06T15:26:57.693Z,24.60
2022-09-06T15:29:27.163Z,24.60
2022-09-06T15:31:57.299Z,24.50
2022-09-06T15:34:27.949Z,24.60
2022-09-06T15:36:57.203Z,24.60
2022-09-06T15:39:25.950Z,24.60
2022-09-06T15:41:54.733Z,24.60
2022-09-06T15:44:23.421Z,24.60
2022-09-06T15:46:54.828Z,24.70
2022-09-06T15:49:28.805Z,24.60
2022-09-06T15:51:58.936Z,24.60
2022-09-06T15:54:42.295Z,24.50
2022-09-06T15:57:11.964Z,24.40
2022-09-06T15:59:42.072Z,24.40
2022-09-06T16:02:11.851Z,24.50
2022-09-06T16:04:42.314Z,24.60
2022-09-06T16:07:11.713Z,24.60
2022-09-06T16:09:40.748Z,24.70
2022-09-06T16:12:09.805Z,24.80
2022-09-06T16:14:39.476Z,24.70
2022-09-06T16:17:08.243Z,24.60
2022-09-06T16:19:37.185Z,24.60
2022-09-06T16:22:07.693Z,24.60
2022-09-06T16:24:36.407Z,24.60
2022-09-06T16:27:05.468Z,24.60
2022-09-06T16:29:34.462Z,24.60
2022-09-06T16:32:04.004Z,24.60
2022-09-06T16:34:32.679Z,24.60
2022-09-06T16:37:07.816Z,24.60
2022-09-06T16:39:38.840Z,24.60
2022-09-06T16:42:08.556Z,24.60
2022-09-06T16:44:37.898Z,24.50
2022-09-06T16:47:06.945Z,24.50
2022-09-06T16:49:35.786Z,24.50
2022-09-06T16:52:04.875Z,24.50
2022-09-06T16:54:34.305Z,24.50
2022-09-06T16:57:05.222Z,24.40
2022-09-06T16:59:34.518Z,24.40
2022-09-06T17:02:03.892Z,24.30
2022-09-06T17:04:32.883Z,24.30
2022-09-06T17:07:01.502Z,24.20
2022-09-06T17:09:30.169Z,24.20
2022-09-06T17:11:58.996Z,24.30
2022-09-06T17:14:29.265Z,24.20
2022-09-06T17:17:07.825Z,24.30
2022-09-06T17:19:41.825Z,24.20
2022-09-06T17:22:12.892Z,24.20
2022-09-06T17:24:42.705Z,24.20
2022-09-06T17:27:12.065Z,24.10
2022-09-06T17:29:42.183Z,24.10
2022-09-06T17:32:11.282Z,24.00
2022-09-06T17:34:41.104Z,24.00
2022-09-06T17:37:10.090Z,24.00
2022-09-06T17:39:40.455Z,23.90
2022-09-06T17:42:09.881Z,23.80
2022-09-06T17:44:38.681Z,23.70
2022-09-06T17:47:12.917Z,23.70
2022-09-06T17:49:43.235Z,23.70
2022-09-06T17:52:12.652Z,23.60
2022-09-06T17:54:41.503Z,23.60
2022-09-06T17:57:10.260Z,23.60
2022-09-06T17:59:39.613Z,23.40
2022-09-06T18:02:10.455Z,23.30
2022-09-06T18:04:39.802Z,23.20
2022-09-06T18:07:08.493Z,23.10
2022-09-06T18:09:37.915Z,23.00
2022-09-06T18:12:07.105Z,22.90
2022-09-06T18:14:36.399Z,22.80
2022-09-06T18:17:05.560Z,22.80
2022-09-06T18:19:38.629Z,22.70
2022-09-06T18:22:07.413Z,22.60
2022-09-06T18:24:36.149Z,22.70
2022-09-06T18:27:05.094Z,22.70
2022-09-06T18:29:33.887Z,22.70
2022-09-06T18:32:03.018Z,22.70
2022-09-06T18:34:34.299Z,22.60
2022-09-06T18:37:05.336Z,22.70
2022-09-06T18:39:34.065Z,22.60
2022-09-06T18:42:07.068Z,22.60
2022-09-06T18:44:37.028Z,22.50
2022-09-06T18:47:08.484Z,22.50
2022-09-06T18:49:43.230Z,22.50
2022-09-06T18:52:14.019Z,22.40
2022-09-06T18:54:43.818Z,22.40
2022-09-06T18:57:14.736Z,22.40
2022-09-06T18:59:43.621Z,22.30
2022-09-06T19:02:12.921Z,22.30
2022-09-06T19:04:41.945Z,22.20
2022-09-06T19:07:11.029Z,22.30
2022-09-06T19:09:42.951Z,22.20
2022-09-06T19:12:12.144Z,22.20
2022-09-06T19:14:40.812Z,22.10
2022-09-06T19:17:09.512Z,22.10
2022-09-06T19:19:39.700Z,22.10
2022-09-06T19:22:08.885Z,22.00
2022-09-06T19:24:39.680Z,22.00
2022-09-06T19:27:10.694Z,22.00
2022-09-06T19:29:39.576Z,22.00
2022-09-06T19:32:08.365Z,22.00
2022-09-06T19:34:38.307Z,22.00
2022-09-06T19:37:07.126Z,21.90
2022-09-06T19:39:37.301Z,21.90
2022-09-06T19:42:08.321Z,21.90
2022-09-06T19:44:37.093Z,21.90
2022-09-06T19:47:05.849Z,21.80
2022-09-06T19:49:34.612Z,21.70
2022-09-06T19:52:09.538Z,21.70
2022-09-06T19:54:38.728Z,21.70
2022-09-06T19:57:08.902Z,21.70
2022-09-06T19:59:39.497Z,21.70
2022-09-06T20:02:08.830Z,21.60
2022-09-06T20:04:37.544Z,21.60
2022-09-06T20:07:06.526Z,21.60
2022-09-06T20:09:37.116Z,21.50
2022-09-06T20:12:06.097Z,21.50
2022-09-06T20:14:36.148Z,21.50
2022-09-06T20:17:31.823Z,21.40
2022-09-06T20:19:53.990Z,21.50
2022-09-06T20:22:22.614Z,21.40
2022-09-06T20:24:51.279Z,21.40
2022-09-06T20:27:20.091Z,21.40
2022-09-06T20:29:50.266Z,21.40
2022-09-06T20:32:19.000Z,21.30
2022-09-06T20:34:47.692Z,21.30
2022-09-06T20:37:16.350Z,21.30
2022-09-06T20:39:45.221Z,21.30
2022-09-06T20:42:13.837Z,21.30
2022-09-06T20:44:42.547Z,21.30
2022-09-06T20:47:12.887Z,21.30
2022-09-06T20:49:41.697Z,21.20
2022-09-06T20:52:10.408Z,21.20
2022-09-06T20:54:40.206Z,21.20
2022-09-06T20:57:08.876Z,21.20
2022-09-06T20:59:37.582Z,21.20
2022-09-06T21:02:06.427Z,21.20
2022-09-06T21:04:36.497Z,21.20
2022-09-06T21:07:05.271Z,21.10
2022-09-06T21:09:34.027Z,21.20
2022-09-06T21:12:04.609Z,21.10
2022-09-06T21:14:33.389Z,21.20
2022-09-06T21:17:02.188Z,21.20
2022-09-06T21:19:30.770Z,21.20
2022-09-06T21:22:00.944Z,21.10
2022-09-06T21:24:29.576Z,21.10
2022-09-06T21:26:58.157Z,21.10
2022-09-06T21:29:26.812Z,21.10
2022-09-06T21:31:55.510Z,21.00
2022-09-06T21:34:24.425Z,21.00
2022-09-06T21:36:52.981Z,20.90
2022-09-06T21:39:23.026Z,20.90
2022-09-06T21:41:51.843Z,20.90
2022-09-06T21:44:20.425Z,20.80
2022-09-06T21:46:49.223Z,20.80
2022-09-06T21:49:18.084Z,20.70
2022-09-06T21:51:46.964Z,20.70
2022-09-06T21:54:15.556Z,20.70
2022-09-06T21:56:46.674Z,20.70
2022-09-06T21:59:15.681Z,20.70
2022-09-06T22:01:45.345Z,20.70
2022-09-06T22:04:14.736Z,20.60
2022-09-06T22:06:43.405Z,20.50
2022-09-06T22:09:14.779Z,20.50
2022-09-06T22:11:46.038Z,20.50
2022-09-06T22:14:16.236Z,20.50
2022-09-06T22:16:45.228Z,20.50
2022-09-06T22:19:15.420Z,20.50
2022-09-06T22:21:44.197Z,20.40
2022-09-06T22:24:14.365Z,20.40
2022-09-06T22:26:45.782Z,20.40
2022-09-06T22:29:15.620Z,20.40
2022-09-06T22:31:44.826Z,20.40
2022-09-06T22:34:13.681Z,20.40
2022-09-06T22:36:43.068Z,20.50
2022-09-06T22:39:11.760Z,20.40
2022-09-06T22:41:40.380Z,20.40
2022-09-06T22:44:10.388Z,20.30
2022-09-06T22:46:39.518Z,20.30
2022-09-06T22:49:08.382Z,20.30
2022-09-06T22:51:37.056Z,20.20
2022-09-06T22:54:06.350Z,20.10
2022-09-06T22:56:35.764Z,20.00
2022-09-06T22:59:05.100Z,20.00
2022-09-06T23:01:39.299Z,20.00
2022-09-06T23:04:08.702Z,19.90
2022-09-06T23:06:38.382Z,19.80
2022-09-06T23:09:07.203Z,19.80
2022-09-06T23:11:35.890Z,19.80
2022-09-06T23:14:22.965Z,19.80
2022-09-06T23:16:52.995Z,19.70
2022-09-06T23:19:21.817Z,19.70
2022-09-06T23:21:50.537Z,19.60
2022-09-06T23:24:19.116Z,19.60
2022-09-06T23:26:47.748Z,19.60
2022-09-06T23:29:16.454Z,19.60
2022-09-06T23:31:45.157Z,19.50
2022-09-06T23:34:15.255Z,19.50
2022-09-06T23:36:43.917Z,19.50
2022-09-06T23:39:12.782Z,19.40
2022-09-06T23:41:42.468Z,19.40
2022-09-06T23:44:11.165Z,19.40
2022-09-06T23:46:39.807Z,19.40
2022-09-06T23:49:08.516Z,19.40
2022-09-06T23:51:38.589Z,19.40
2022-09-06T23:54:07.398Z,19.40
2022-09-06T23:56:36.045Z,19.40
2022-09-06T23:59:04.661Z,19.40
